Time;durP1;ratioP1;P1;durP2;ratioP2;P2;SDS_P1;SDS_P2;PMS_P1;PMS_P2;Temp;Humidity;BMP_temperature;BMP_pressure;BME280_temperature;BME280_humidity;BME280_pressure;Samples;Min_cycle;Max_cycle;Signal;HPM_P1;HPM_P2
2021/11/21 00:01:58;;;;;;;49.15;25.95;;;;;;;;;;5033316;28;20233;-57
2021/11/21 00:04:25;;;;;;;35.75;25.20;;;;;;;;;;5033287;28;20202;-57
2021/11/21 00:06:53;;;;;;;33.67;24.45;;;;;;;;;;5033060;28;20305;-58
2021/11/21 00:09:20;;;;;;;39.30;25.88;;;;;;;;;;5033349;28;20233;-57
2021/11/21 00:11:49;;;;;;;37.58;25.05;;;;;;;;;;5033089;28;20234;-57
2021/11/21 00:14:17;;;;;;;35.70;24.05;;;;;;;;;;5033298;28;20214;-57
2021/11/21 00:16:44;;;;;;;34.80;23.63;;;;;;;;;;5032861;28;20313;-57
2021/11/21 00:19:11;;;;;;;37.97;25.63;;;;;;;;;;5033413;28;20237;-57
2021/11/21 00:21:39;;;;;;;36.20;24.85;;;;;;;;;;5033023;28;20206;-57
2021/11/21 00:24:06;;;;;;;40.67;26.27;;;;;;;;;;5034175;28;20202;-57
2021/11/21 00:26:34;;;;;;;39.45;25.67;;;;;;;;;;5037109;28;20321;-57
2021/11/21 00:29:03;;;;;;;43.75;28.38;;;;;;;;;;5037420;28;20191;-58
2021/11/21 00:31:30;;;;;;;38.53;26.95;;;;;;;;;;5036953;28;20301;-58
2021/11/21 00:33:58;;;;;;;37.40;26.77;;;;;;;;;;5037227;28;20249;-57
2021/11/21 00:36:25;;;;;;;39.85;27.52;;;;;;;;;;5036851;28;20319;-56
2021/11/21 00:38:52;;;;;;;35.08;24.48;;;;;;;;;;5036959;28;20393;-56
2021/11/21 00:41:20;;;;;;;43.78;27.20;;;;;;;;;;5037376;28;20289;-57
2021/11/21 00:43:48;;;;;;;45.05;27.50;;;;;;;;;;5037240;28;20270;-56
2021/11/21 00:46:17;;;;;;;36.65;25.27;;;;;;;;;;5036800;28;20225;-57
2021/11/21 00:48:44;;;;;;;41.25;27.63;;;;;;;;;;5037031;28;20297;-57
2021/11/21 00:51:12;;;;;;;38.00;24.50;;;;;;;;;;5036544;28;20297;-57
2021/11/21 00:53:42;;;;;;;38.22;24.92;;;;;;;;;;5036390;28;20257;-57
2021/11/21 00:56:10;;;;;;;34.42;23.95;;;;;;;;;;5036633;28;20190;-57
2021/11/21 00:58:38;;;;;;;40.38;27.83;;;;;;;;;;5036926;28;20622;-57
2021/11/21 01:01:06;;;;;;;41.50;25.92;;;;;;;;;;5036787;28;20352;-57
2021/11/21 01:03:35;;;;;;;38.35;25.42;;;;;;;;;;5036784;28;20245;-57
2021/11/21 01:06:02;;;;;;;38.85;25.63;;;;;;;;;;5036671;28;20290;-57
2021/11/21 01:08:30;;;;;;;38.75;26.45;;;;;;;;;;5036555;28;20593;-58
2021/11/21 01:10:58;;;;;;;37.72;23.67;;;;;;;;;;5036689;28;20214;-57
2021/11/21 01:13:27;;;;;;;35.58;24.25;;;;;;;;;;5036163;28;20697;-56
2021/11/21 01:15:54;;;;;;;38.13;24.40;;;;;;;;;;5036301;28;20294;-56
2021/11/21 01:18:22;;;;;;;37.85;24.33;;;;;;;;;;5036149;28;20261;-57
2021/11/21 01:20:51;;;;;;;32.35;22.77;;;;;;;;;;5036388;28;20320;-57
2021/11/21 01:23:19;;;;;;;34.45;23.33;;;;;;;;;;5036141;28;20309;-56
2021/11/21 01:25:47;;;;;;;33.65;23.90;;;;;;;;;;5035925;28;20614;-56
2021/11/21 01:28:15;;;;;;;38.58;23.00;;;;;;;;;;5035719;28;20230;-56
2021/11/21 01:30:42;;;;;;;33.22;22.60;;;;;;;;;;5035855;28;20685;-56
2021/11/21 01:33:10;;;;;;;35.13;23.08;;;;;;;;;;5035759;28;20256;-56
2021/11/21 01:35:37;;;;;;;32.35;21.38;;;;;;;;;;5036445;28;20293;-56
2021/11/21 01:38:07;;;;;;;32.92;22.05;;;;;;;;;;5038215;28;20646;-56
2021/11/21 01:40:34;;;;;;;32.58;20.95;;;;;;;;;;5038003;28;20236;-56
2021/11/21 01:43:02;;;;;;;30.35;20.52;;;;;;;;;;5037572;28;20241;-56
2021/11/21 01:45:30;;;;;;;32.67;22.50;;;;;;;;;;5035613;28;20306;-57
2021/11/21 01:47:57;;;;;;;32.05;22.92;;;;;;;;;;5036015;28;20305;-56
2021/11/21 01:50:26;;;;;;;32.60;22.23;;;;;;;;;;5035519;28;20298;-56
2021/11/21 01:52:54;;;;;;;31.10;21.92;;;;;;;;;;5035461;28;20689;-56
2021/11/21 01:55:23;;;;;;;36.17;21.40;;;;;;;;;;5035703;28;20316;-56
2021/11/21 01:57:50;;;;;;;31.48;22.30;;;;;;;;;;5035588;28;20222;-56
2021/11/21 02:00:18;;;;;;;33.88;22.05;;;;;;;;;;5035976;28;20233;-57
2021/11/21 02:02:46;;;;;;;36.45;23.50;;;;;;;;;;5035661;28;20306;-57
2021/11/21 02:05:14;;;;;;;34.72;22.63;;;;;;;;;;5036617;28;20321;-56
2021/11/21 02:07:42;;;;;;;36.40;24.35;;;;;;;;;;5035515;28;20726;-56
2021/11/21 02:10:12;;;;;;;33.85;22.58;;;;;;;;;;5035502;28;20214;-56
2021/11/21 02:12:41;;;;;;;35.47;22.98;;;;;;;;;;5035454;28;20290;-56
2021/11/21 02:15:10;;;;;;;35.97;25.10;;;;;;;;;;5035217;28;20307;-56
2021/11/21 02:17:37;;;;;;;31.05;20.60;;;;;;;;;;5035280;28;20657;-56
2021/11/21 02:20:05;;;;;;;34.20;24.00;;;;;;;;;;5035197;28;20297;-56
2021/11/21 02:22:34;;;;;;;31.17;21.67;;;;;;;;;;5035330;28;20237;-56
2021/11/21 02:25:02;;;;;;;35.03;21.65;;;;;;;;;;5035119;28;20285;-56
2021/11/21 02:27:30;;;;;;;30.50;21.85;;;;;;;;;;5034574;28;20262;-56
2021/11/21 02:29:58;;;;;;;31.23;22.52;;;;;;;;;;5035055;28;20234;-56
2021/11/21 02:32:25;;;;;;;30.77;21.15;;;;;;;;;;5035062;28;20230;-57
2021/11/21 02:34:53;;;;;;;35.90;22.48;;;;;;;;;;5037345;28;20202;-56
2021/11/21 02:37:20;;;;;;;34.45;22.48;;;;;;;;;;5034583;28;20226;-56
2021/11/21 02:39:49;;;;;;;34.33;23.90;;;;;;;;;;5034911;28;20240;-56
2021/11/21 02:42:27;;;;;;;35.50;22.42;;;;;;;;;;5034518;28;20245;-56
2021/11/21 02:44:54;;;;;;;37.85;22.63;;;;;;;;;;5034695;28;20294;-56
2021/11/21 02:47:22;;;;;;;34.40;22.77;;;;;;;;;;5033288;28;20222;-56
2021/11/21 02:49:50;;;;;;;35.67;22.75;;;;;;;;;;5034371;28;20256;-56
2021/11/21 02:52:18;;;;;;;32.47;21.48;;;;;;;;;;5034338;28;20209;-56
2021/11/21 02:54:54;;;;;;;32.42;21.58;;;;;;;;;;5034243;28;20250;-57
2021/11/21 02:57:22;;;;;;;34.33;22.60;;;;;;;;;;5034334;28;20264;-55
2021/11/21 02:59:49;;;;;;;33.58;21.90;;;;;;;;;;5034601;28;20289;-57
2021/11/21 03:02:18;;;;;;;32.90;23.25;;;;;;;;;;5034375;28;20305;-56
2021/11/21 03:04:46;;;;;;;31.35;20.38;;;;;;;;;;5034594;28;20202;-56
2021/11/21 03:07:13;;;;;;;32.00;22.20;;;;;;;;;;5033906;28;20250;-56
2021/11/21 03:09:41;;;;;;;33.15;21.40;;;;;;;;;;5033930;28;20237;-56
2021/11/21 03:12:11;;;;;;;29.27;19.52;;;;;;;;;;5034194;28;20241;-55
2021/11/21 03:14:38;;;;;;;31.10;20.38;;;;;;;;;;5034110;28;20309;-56
2021/11/21 03:17:06;;;;;;;28.08;20.02;;;;;;;;;;5034085;28;20660;-56
2021/11/21 03:19:33;;;;;;;35.10;22.77;;;;;;;;;;5034008;28;20301;-56
2021/11/21 03:22:01;;;;;;;31.65;21.20;;;;;;;;;;5033846;28;20293;-56
2021/11/21 03:24:28;;;;;;;33.47;20.90;;;;;;;;;;5033724;28;20298;-56
2021/11/21 03:26:56;;;;;;;28.90;21.00;;;;;;;;;;5033778;28;20269;-56
2021/11/21 03:29:24;;;;;;;33.80;21.95;;;;;;;;;;5033930;28;20244;-56
2021/11/21 03:31:52;;;;;;;34.03;21.10;;;;;;;;;;5033578;28;20297;-56
2021/11/21 03:34:19;;;;;;;31.02;20.95;;;;;;;;;;5033445;28;20416;-56
2021/11/21 03:36:47;;;;;;;34.67;21.33;;;;;;;;;;5033783;28;20313;-56
2021/11/21 03:39:14;;;;;;;31.67;20.52;;;;;;;;;;5033800;28;20256;-56
2021/11/21 03:41:42;;;;;;;30.33;20.40;;;;;;;;;;5033452;28;20686;-56
2021/11/21 03:44:10;;;;;;;28.77;19.67;;;;;;;;;;5034530;28;20757;-56
2021/11/21 03:46:39;;;;;;;30.85;21.70;;;;;;;;;;5033256;28;20257;-56
2021/11/21 03:49:07;;;;;;;28.55;19.95;;;;;;;;;;5033325;28;20385;-56
2021/11/21 03:51:35;;;;;;;31.58;19.92;;;;;;;;;;5033295;28;20245;-56
2021/11/21 03:54:03;;;;;;;32.60;20.80;;;;;;;;;;5033483;28;20260;-56
2021/11/21 03:56:30;;;;;;;31.38;21.10;;;;;;;;;;5033165;28;20784;-57
2021/11/21 03:58:58;;;;;;;30.70;19.88;;;;;;;;;;5032842;28;20556;-57
2021/11/21 04:01:25;;;;;;;32.25;20.55;;;;;;;;;;5033191;28;20230;-56
2021/11/21 04:03:54;;;;;;;33.00;21.50;;;;;;;;;;5033133;28;20752;-56
2021/11/21 04:08:55;;;;;;;30.90;20.95;;;;;;;;;;5111757;27;20565;-54
2021/11/21 04:11:22;;;;;;;30.20;21.15;;;;;;;;;;5111349;28;20223;-57
2021/11/21 04:13:50;;;;;;;29.17;21.02;;;;;;;;;;5111293;28;20195;-57
2021/11/21 04:16:17;;;;;;;33.00;21.70;;;;;;;;;;5111273;28;20250;-58
2021/11/21 04:18:45;;;;;;;32.67;22.10;;;;;;;;;;5110854;28;20295;-56
2021/11/21 04:21:12;;;;;;;31.42;20.60;;;;;;;;;;5102546;22;20259;-56
2021/11/21 04:23:39;;;;;;;35.65;21.08;;;;;;;;;;5070931;28;20292;-56
2021/11/21 04:26:08;;;;;;;31.33;22.10;;;;;;;;;;5070947;28;20603;-56
2021/11/21 04:28:36;;;;;;;30.08;19.30;;;;;;;;;;5070935;28;20307;-56
2021/11/21 04:31:04;;;;;;;34.08;19.95;;;;;;;;;;5070826;28;20221;-56
2021/11/21 04:33:32;;;;;;;28.10;21.45;;;;;;;;;;5070299;28;20668;-56
2021/11/21 04:35:59;;;;;;;31.45;20.17;;;;;;;;;;5070513;28;20243;-57
2021/11/21 04:38:27;;;;;;;28.80;19.65;;;;;;;;;;5070526;28;20284;-55
2021/11/21 04:40:54;;;;;;;28.00;20.20;;;;;;;;;;5070485;28;20757;-57
2021/11/21 04:43:23;;;;;;;31.25;20.33;;;;;;;;;;5070939;28;20629;-58
2021/11/21 04:45:53;;;;;;;27.83;18.48;;;;;;;;;;5070304;28;20629;-56
2021/11/21 04:48:20;;;;;;;28.40;20.42;;;;;;;;;;5070117;28;20304;-57
2021/11/21 04:50:48;;;;;;;29.25;20.25;;;;;;;;;;5070219;28;20313;-57
2021/11/21 04:53:15;;;;;;;25.70;18.67;;;;;;;;;;5069958;28;20288;-56
2021/11/21 04:55:43;;;;;;;29.35;18.67;;;;;;;;;;5070058;28;20231;-56
2021/11/21 04:58:11;;;;;;;28.65;18.27;;;;;;;;;;5069883;28;20285;-57
2021/11/21 05:00:40;;;;;;;28.48;18.45;;;;;;;;;;5069984;28;20569;-54
2021/11/21 05:03:07;;;;;;;28.42;18.73;;;;;;;;;;5069660;28;20288;-54
2021/11/21 05:05:35;;;;;;;24.88;17.60;;;;;;;;;;5069562;28;20243;-55
2021/11/21 05:08:04;;;;;;;23.27;16.90;;;;;;;;;;5069476;28;20248;-55
2021/11/21 05:10:31;;;;;;;26.30;17.63;;;;;;;;;;5069535;28;20308;-54
2021/11/21 05:12:59;;;;;;;25.35;17.40;;;;;;;;;;5069609;28;20292;-55
2021/11/21 05:15:26;;;;;;;24.85;17.05;;;;;;;;;;5069573;28;20263;-56
2021/11/21 05:17:55;;;;;;;22.40;16.67;;;;;;;;;;5069844;28;20201;-56
2021/11/21 05:20:23;;;;;;;21.90;16.23;;;;;;;;;;5055730;28;20225;-55
2021/11/21 05:22:50;;;;;;;27.55;18.13;;;;;;;;;;5056297;28;20668;-56
2021/11/21 05:25:18;;;;;;;24.65;17.10;;;;;;;;;;5056572;28;20296;-56
2021/11/21 05:27:47;;;;;;;26.17;17.92;;;;;;;;;;5056356;28;20228;-55
2021/11/21 05:30:15;;;;;;;23.40;17.30;;;;;;;;;;5055872;28;20224;-55
2021/11/21 05:32:43;;;;;;;25.08;17.02;;;;;;;;;;5057111;28;20293;-73
2021/11/21 05:35:13;;;;;;;26.17;17.02;;;;;;;;;;5064738;28;20243;-58
2021/11/21 05:37:40;;;;;;;26.70;16.90;;;;;;;;;;5065941;28;20240;-70
2021/11/21 05:40:10;;;;;;;25.20;17.55;;;;;;;;;;5056609;28;20313;-55
2021/11/21 05:42:37;;;;;;;24.20;17.05;;;;;;;;;;5055561;28;20237;-55
2021/11/21 05:45:05;;;;;;;21.98;16.10;;;;;;;;;;5055386;28;20210;-55
2021/11/21 05:47:32;;;;;;;25.25;16.60;;;;;;;;;;5055273;28;20304;-54
2021/11/21 05:50:00;;;;;;;21.60;16.20;;;;;;;;;;5055482;28;20573;-54
2021/11/21 05:52:29;;;;;;;27.52;17.70;;;;;;;;;;5055511;28;20288;-56
2021/11/21 05:54:56;;;;;;;21.80;15.48;;;;;;;;;;5055607;28;20289;-55
2021/11/21 05:57:23;;;;;;;22.90;16.85;;;;;;;;;;5055231;28;20288;-55
2021/11/21 05:59:51;;;;;;;22.45;16.10;;;;;;;;;;5055415;28;20245;-56
2021/11/21 06:02:18;;;;;;;22.70;16.00;;;;;;;;;;5055508;28;20292;-55
2021/11/21 06:04:46;;;;;;;23.42;17.13;;;;;;;;;;5056887;28;20301;-55
2021/11/21 06:07:13;;;;;;;22.77;16.48;;;;;;;;;;5056986;28;20244;-55
2021/11/21 06:09:42;;;;;;;27.88;17.45;;;;;;;;;;5056065;28;20342;-55
2021/11/21 06:12:10;;;;;;;23.90;16.90;;;;;;;;;;5055855;28;20668;-55
2021/11/21 06:14:37;;;;;;;24.98;17.02;;;;;;;;;;5056343;28;20278;-54
2021/11/21 06:17:05;;;;;;;27.58;17.45;;;;;;;;;;5055606;28;20201;-55
2021/11/21 06:19:32;;;;;;;25.25;17.63;;;;;;;;;;5055803;28;20248;-54
2021/11/21 06:22:00;;;;;;;26.33;17.42;;;;;;;;;;5056497;28;20695;-55
2021/11/21 06:24:29;;;;;;;29.23;19.30;;;;;;;;;;5056755;28;20237;-54
2021/11/21 06:26:58;;;;;;;27.10;18.85;;;;;;;;;;5055771;28;20288;-55
2021/11/21 06:29:25;;;;;;;27.40;18.10;;;;;;;;;;5056021;28;20316;-55
2021/11/21 06:31:52;;;;;;;30.15;18.42;;;;;;;;;;5054594;28;20266;-54
2021/11/21 06:34:20;;;;;;;26.95;16.83;;;;;;;;;;5055731;28;20261;-56
2021/11/21 06:36:47;;;;;;;27.70;18.90;;;;;;;;;;5057854;28;20204;-55
2021/11/21 06:39:15;;;;;;;28.65;18.02;;;;;;;;;;5060077;28;20239;-55
2021/11/21 06:41:42;;;;;;;29.02;19.55;;;;;;;;;;5061322;28;20208;-54
2021/11/21 06:44:11;;;;;;;26.02;17.77;;;;;;;;;;5060005;28;20228;-55
2021/11/21 06:46:39;;;;;;;25.55;18.10;;;;;;;;;;5060391;28;20689;-53
2021/11/21 06:49:06;;;;;;;25.60;16.73;;;;;;;;;;5058675;28;20252;-56
2021/11/21 06:51:34;;;;;;;28.02;18.15;;;;;;;;;;5058952;28;20233;-55
2021/11/21 06:54:02;;;;;;;26.13;17.27;;;;;;;;;;5057484;28;20204;-56
2021/11/21 06:56:29;;;;;;;31.40;20.05;;;;;;;;;;5057675;28;20252;-55
2021/11/21 06:58:57;;;;;;;29.63;19.52;;;;;;;;;;5057015;28;20198;-55
2021/11/21 07:01:26;;;;;;;28.52;19.30;;;;;;;;;;5057622;28;20279;-55
2021/11/21 07:03:53;;;;;;;27.13;18.42;;;;;;;;;;5058266;28;20292;-56
2021/11/21 07:06:30;;;;;;;30.83;18.58;;;;;;;;;;5057609;28;20751;-55
2021/11/21 07:08:58;;;;;;;26.98;17.73;;;;;;;;;;5055929;28;20253;-56
2021/11/21 07:11:25;;;;;;;28.70;18.33;;;;;;;;;;5054555;28;20261;-55
2021/11/21 07:13:53;;;;;;;26.58;17.80;;;;;;;;;;5054322;28;20230;-55
2021/11/21 07:16:20;;;;;;;27.27;17.73;;;;;;;;;;5054193;28;20254;-55
2021/11/21 07:18:49;;;;;;;25.25;15.95;;;;;;;;;;5054087;28;20243;-56
2021/11/21 07:21:17;;;;;;;23.17;15.65;;;;;;;;;;5053542;28;20252;-55
2021/11/21 07:23:44;;;;;;;23.13;15.88;;;;;;;;;;5053965;28;20233;-55
2021/11/21 07:26:11;;;;;;;21.42;13.77;;;;;;;;;;5053830;28;20233;-56
2021/11/21 07:28:39;;;;;;;22.52;14.60;;;;;;;;;;5053708;28;20656;-55
2021/11/21 07:31:07;;;;;;;19.58;14.10;;;;;;;;;;5053161;28;20309;-55
2021/11/21 07:33:34;;;;;;;18.70;12.82;;;;;;;;;;5053734;28;20238;-56
2021/11/21 07:36:03;;;;;;;20.83;14.55;;;;;;;;;;5053301;28;20250;-53
2021/11/21 07:38:31;;;;;;;19.02;12.65;;;;;;;;;;5053548;28;20743;-55
2021/11/21 07:40:58;;;;;;;15.23;11.93;;;;;;;;;;5053624;28;20348;-56
2021/11/21 07:43:26;;;;;;;12.95;10.50;;;;;;;;;;5053003;28;20301;-56
2021/11/21 07:45:54;;;;;;;13.75;9.40;;;;;;;;;;5053383;28;20289;-56
2021/11/21 07:48:22;;;;;;;16.80;10.93;;;;;;;;;;5053251;28;20700;-56
2021/11/21 07:50:49;;;;;;;15.18;10.05;;;;;;;;;;5053045;28;20312;-55
2021/11/21 07:53:18;;;;;;;14.15;10.02;;;;;;;;;;5053416;28;20208;-55
2021/11/21 07:55:47;;;;;;;14.77;10.25;;;;;;;;;;5053077;28;20202;-59
2021/11/21 07:58:14;;;;;;;13.45;10.20;;;;;;;;;;5053420;28;20204;-56
2021/11/21 08:00:42;;;;;;;13.93;10.13;;;;;;;;;;5053375;28;20279;-56
2021/11/21 08:03:09;;;;;;;14.52;11.38;;;;;;;;;;5053610;28;20244;-56
2021/11/21 08:05:37;;;;;;;12.18;8.40;;;;;;;;;;5053730;28;20229;-56
2021/11/21 08:08:05;;;;;;;11.25;8.50;;;;;;;;;;5053204;28;20767;-53
2021/11/21 08:10:34;;;;;;;13.90;9.05;;;;;;;;;;5053551;28;20297;-56
2021/11/21 08:13:01;;;;;;;13.30;9.55;;;;;;;;;;5055206;28;20230;-54
2021/11/21 08:15:29;;;;;;;13.10;9.20;;;;;;;;;;5053120;28;20244;-55
2021/11/21 08:17:56;;;;;;;13.30;10.60;;;;;;;;;;5053524;28;20240;-55
2021/11/21 08:20:24;;;;;;;12.55;9.02;;;;;;;;;;5052983;28;20327;-56
2021/11/21 08:22:52;;;;;;;12.38;9.10;;;;;;;;;;5052865;28;20297;-55
2021/11/21 08:25:19;;;;;;;12.98;9.82;;;;;;;;;;5053015;28;20229;-56
2021/11/21 08:27:48;;;;;;;12.52;9.38;;;;;;;;;;5053195;28;20292;-55
2021/11/21 08:30:15;;;;;;;12.20;9.63;;;;;;;;;;5052637;28;20264;-55
2021/11/21 08:32:43;;;;;;;11.88;8.90;;;;;;;;;;5052804;28;20296;-55
2021/11/21 08:35:10;;;;;;;12.00;9.13;;;;;;;;;;5052661;28;20369;-55
2021/11/21 08:37:38;;;;;;;11.98;9.40;;;;;;;;;;5052891;28;20252;-56
2021/11/21 08:40:06;;;;;;;12.55;9.13;;;;;;;;;;5052330;28;20603;-55
2021/11/21 08:42:34;;;;;;;11.27;8.82;;;;;;;;;;5052780;28;20201;-55
2021/11/21 08:45:03;;;;;;;11.48;8.55;;;;;;;;;;5052466;28;20224;-55
2021/11/21 08:47:30;;;;;;;14.80;9.32;;;;;;;;;;5052598;28;20289;-56
2021/11/21 08:49:57;;;;;;;11.95;9.10;;;;;;;;;;5052175;28;20308;-54
2021/11/21 08:52:25;;;;;;;14.95;9.90;;;;;;;;;;5052675;28;20236;-56
2021/11/21 08:54:52;;;;;;;13.32;9.60;;;;;;;;;;5055181;28;20233;-56
2021/11/21 08:57:20;;;;;;;16.15;10.35;;;;;;;;;;5056113;28;20292;-55
2021/11/21 08:59:48;;;;;;;14.30;9.07;;;;;;;;;;5055912;28;20658;-56
2021/11/21 09:02:16;;;;;;;15.95;10.15;;;;;;;;;;5055755;28;20230;-54
2021/11/21 09:04:44;;;;;;;14.13;9.65;;;;;;;;;;5056457;28;20795;-56
2021/11/21 09:07:11;;;;;;;12.30;8.95;;;;;;;;;;5056317;28;20244;-55
2021/11/21 09:09:39;;;;;;;11.48;7.95;;;;;;;;;;5056857;28;20257;-55
2021/11/21 09:12:07;;;;;;;11.48;8.60;;;;;;;;;;5056114;28;20748;-56
2021/11/21 09:14:34;;;;;;;9.27;7.22;;;;;;;;;;5056238;28;20233;-57
2021/11/21 09:17:02;;;;;;;12.00;8.82;;;;;;;;;;5056731;28;20293;-55
2021/11/21 09:19:31;;;;;;;11.95;7.80;;;;;;;;;;5056637;28;20239;-56
2021/11/21 09:21:58;;;;;;;13.38;8.57;;;;;;;;;;5056476;28;20276;-55
2021/11/21 09:24:26;;;;;;;8.10;4.90;;;;;;;;;;5056115;28;20233;-54
2021/11/21 09:26:53;;;;;;;6.00;3.97;;;;;;;;;;5055914;28;20210;-55
2021/11/21 09:29:21;;;;;;;5.22;3.58;;;;;;;;;;5055687;28;20260;-56
2021/11/21 09:31:48;;;;;;;5.25;2.90;;;;;;;;;;5055732;28;20259;-56
2021/11/21 09:34:16;;;;;;;3.75;3.10;;;;;;;;;;5055625;28;20297;-54
2021/11/21 09:36:45;;;;;;;6.32;3.78;;;;;;;;;;5055798;28;20258;-56
2021/11/21 09:39:12;;;;;;;7.38;3.13;;;;;;;;;;5055336;28;20200;-56
2021/11/21 09:41:40;;;;;;;5.82;3.95;;;;;;;;;;5055907;28;20228;-54
2021/11/21 09:44:07;;;;;;;8.68;4.55;;;;;;;;;;5055855;28;20295;-55
2021/11/21 09:46:35;;;;;;;6.47;4.63;;;;;;;;;;5055762;28;20252;-56
2021/11/21 09:49:03;;;;;;;6.18;4.95;;;;;;;;;;5055142;28;20765;-55
2021/11/21 09:51:30;;;;;;;13.20;7.13;;;;;;;;;;5055342;28;20264;-53
2021/11/21 09:53:59;;;;;;;8.35;6.40;;;;;;;;;;5055554;28;20219;-56
2021/11/21 09:56:26;;;;;;;13.60;7.32;;;;;;;;;;5054994;28;20620;-55
2021/11/21 09:58:54;;;;;;;11.10;7.85;;;;;;;;;;5054988;28;20247;-55
2021/11/21 10:01:34;;;;;;;12.15;7.40;;;;;;;;;;5054342;28;20312;-54
2021/11/21 10:04:02;;;;;;;13.35;9.93;;;;;;;;;;5054795;28;20202;-56
2021/11/21 10:06:34;;;;;;;15.75;9.88;;;;;;;;;;5054926;28;20237;-55
2021/11/21 10:09:03;;;;;;;10.50;7.63;;;;;;;;;;5054738;28;20225;-56
2021/11/21 10:11:31;;;;;;;12.75;8.45;;;;;;;;;;5054609;28;20316;-56
2021/11/21 10:14:04;;;;;;;13.10;8.75;;;;;;;;;;5055106;28;20298;-56
2021/11/21 10:16:34;;;;;;;10.15;8.25;;;;;;;;;;5055007;28;20239;-57
2021/11/21 10:19:02;;;;;;;12.15;8.48;;;;;;;;;;5054860;28;20221;-56
2021/11/21 10:21:31;;;;;;;12.40;8.20;;;;;;;;;;5073283;22;20284;-57
2021/11/21 10:24:14;;;;;;;12.85;8.98;;;;;;;;;;5035176;28;20631;-56
2021/11/21 10:26:41;;;;;;;12.75;9.02;;;;;;;;;;5034585;28;20220;-55
2021/11/21 10:29:25;;;;;;;11.52;8.48;;;;;;;;;;5034708;28;20654;-56
2021/11/21 10:31:52;;;;;;;12.02;9.05;;;;;;;;;;5034650;28;20357;-56
2021/11/21 10:34:20;;;;;;;10.10;8.25;;;;;;;;;;5034329;28;20297;-56
2021/11/21 10:36:47;;;;;;;13.57;9.20;;;;;;;;;;5034587;28;20682;-56
2021/11/21 10:39:20;;;;;;;11.07;7.63;;;;;;;;;;5034537;28;20289;-57
2021/11/21 10:41:51;;;;;;;11.50;8.27;;;;;;;;;;5034489;28;20223;-57
2021/11/21 10:44:20;;;;;;;10.05;7.95;;;;;;;;;;5034711;28;20274;-58
2021/11/21 10:46:48;;;;;;;9.38;7.53;;;;;;;;;;5034532;28;20693;-56
2021/11/21 10:49:30;;;;;;;10.55;7.75;;;;;;;;;;5034062;28;20246;-57
2021/11/21 10:52:07;;;;;;;11.05;8.35;;;;;;;;;;5033812;28;20273;-58
2021/11/21 10:54:38;;;;;;;14.25;8.43;;;;;;;;;;5033942;28;20245;-55
2021/11/21 10:57:07;;;;;;;13.23;8.70;;;;;;;;;;5034237;28;20190;-56
2021/11/21 10:59:36;;;;;;;11.75;7.65;;;;;;;;;;5033767;28;20281;-56
2021/11/21 11:02:07;;;;;;;13.43;9.30;;;;;;;;;;5033808;28;20217;-58
2021/11/21 11:04:34;;;;;;;11.98;8.13;;;;;;;;;;5033692;28;20233;-56
2021/11/21 11:07:12;;;;;;;11.98;9.05;;;;;;;;;;5033711;28;20203;-56
2021/11/21 11:09:41;;;;;;;12.00;7.97;;;;;;;;;;5034081;28;20236;-57
2021/11/21 11:12:10;;;;;;;13.18;7.80;;;;;;;;;;5033699;28;20324;-56
2021/11/21 11:14:38;;;;;;;10.85;7.80;;;;;;;;;;5033790;28;20296;-56
2021/11/21 11:17:05;;;;;;;13.40;8.52;;;;;;;;;;5033889;28;20214;-56
2021/11/21 11:19:34;;;;;;;12.23;8.25;;;;;;;;;;5033611;28;20241;-56
2021/11/21 11:22:01;;;;;;;15.88;8.10;;;;;;;;;;5033293;28;20230;-57
2021/11/21 11:24:29;;;;;;;11.20;7.97;;;;;;;;;;5034856;28;20308;-57
2021/11/21 11:27:05;;;;;;;10.45;6.70;;;;;;;;;;5034410;28;20228;-56
2021/11/21 11:29:35;;;;;;;11.05;6.65;;;;;;;;;;5033521;28;20312;-57
2021/11/21 11:32:21;;;;;;;9.85;6.93;;;;;;;;;;5033418;28;20569;-56
2021/11/21 11:34:49;;;;;;;10.18;7.00;;;;;;;;;;5033463;28;20230;-57
2021/11/21 11:37:17;;;;;;;14.68;7.55;;;;;;;;;;5033541;28;20241;-58
2021/11/21 11:39:45;;;;;;;10.93;6.20;;;;;;;;;;5033665;28;20241;-58
2021/11/21 11:42:31;;;;;;;11.45;7.40;;;;;;;;;;5033504;28;20767;-57
2021/11/21 11:44:59;;;;;;;12.80;7.85;;;;;;;;;;5034383;28;20206;-56
2021/11/21 11:47:27;;;;;;;10.85;6.55;;;;;;;;;;5034860;28;20232;-56
2021/11/21 11:49:55;;;;;;;12.48;6.43;;;;;;;;;;5034326;28;20257;-56
2021/11/21 11:52:37;;;;;;;14.95;6.22;;;;;;;;;;5034299;28;20252;-56
2021/11/21 11:55:09;;;;;;;13.73;6.83;;;;;;;;;;5033464;28;20245;-55
2021/11/21 11:57:37;;;;;;;10.88;6.10;;;;;;;;;;5034242;28;20453;-56
2021/11/21 12:00:20;;;;;;;7.70;5.30;;;;;;;;;;5034632;28;20216;-56
2021/11/21 12:02:48;;;;;;;14.07;5.97;;;;;;;;;;5033167;28;20491;-57
2021/11/21 12:05:28;;;;;;;10.73;6.37;;;;;;;;;;5033113;28;20233;-56
2021/11/21 12:08:12;;;;;;;8.50;5.73;;;;;;;;;;5033526;28;20429;-57
2021/11/21 12:10:45;;;;;;;12.63;5.57;;;;;;;;;;5033120;28;20564;-56
2021/11/21 12:13:13;;;;;;;12.00;5.87;;;;;;;;;;5033478;28;20508;-56
2021/11/21 12:15:47;;;;;;;15.52;5.10;;;;;;;;;;5033667;28;20544;-56
2021/11/21 12:18:16;;;;;;;10.50;5.77;;;;;;;;;;5033205;28;20194;-56
2021/11/21 12:20:45;;;;;;;12.77;5.33;;;;;;;;;;5033096;28;20522;-56
2021/11/21 12:23:13;;;;;;;9.33;4.87;;;;;;;;;;5033944;28;20487;-55
2021/11/21 12:25:42;;;;;;;7.53;4.18;;;;;;;;;;5032998;28;20536;-57
2021/11/21 12:28:09;;;;;;;8.70;4.10;;;;;;;;;;5032823;28;20204;-55
2021/11/21 12:30:38;;;;;;;5.63;3.35;;;;;;;;;;5036980;28;20520;-56
2021/11/21 12:33:06;;;;;;;7.93;4.40;;;;;;;;;;5038373;28;20225;-58
2021/11/21 12:35:36;;;;;;;10.93;4.40;;;;;;;;;;5037844;28;20540;-58
2021/11/21 12:38:05;;;;;;;10.63;3.97;;;;;;;;;;5037646;28;20229;-56
2021/11/21 12:40:34;;;;;;;6.70;3.67;;;;;;;;;;5036861;28;20457;-57
2021/11/21 12:43:03;;;;;;;9.43;3.40;;;;;;;;;;5037588;28;20666;-57
2021/11/21 12:45:32;;;;;;;11.73;5.35;;;;;;;;;;5038114;28;20206;-57
2021/11/21 12:48:01;;;;;;;9.00;4.30;;;;;;;;;;5037637;28;20217;-56
2021/11/21 12:50:30;;;;;;;12.70;3.90;;;;;;;;;;5037064;28;21026;-57
2021/11/21 12:53:01;;;;;;;8.52;4.20;;;;;;;;;;5037333;28;20488;-58
2021/11/21 12:55:30;;;;;;;6.47;4.03;;;;;;;;;;5036997;28;20674;-57
2021/11/21 12:57:58;;;;;;;9.23;3.90;;;;;;;;;;5036808;28;20260;-57
2021/11/21 13:00:27;;;;;;;10.52;3.40;;;;;;;;;;5036852;28;20230;-57
2021/11/21 13:03:06;;;;;;;7.00;3.65;;;;;;;;;;5036347;28;20293;-58
2021/11/21 13:05:36;;;;;;;7.43;3.03;;;;;;;;;;5036524;28;20222;-58
2021/11/21 13:08:05;;;;;;;8.00;4.57;;;;;;;;;;5036403;28;20240;-58
2021/11/21 13:10:37;;;;;;;13.60;4.33;;;;;;;;;;5035963;28;20313;-59
2021/11/21 13:13:05;;;;;;;10.05;4.40;;;;;;;;;;5036102;28;20437;-56
2021/11/21 13:15:32;;;;;;;7.93;3.57;;;;;;;;;;5035859;28;20264;-56
2021/11/21 13:18:10;;;;;;;8.90;3.27;;;;;;;;;;5035711;28;20995;-56
2021/11/21 13:20:39;;;;;;;13.50;4.53;;;;;;;;;;5035895;28;20564;-58
2021/11/21 13:23:08;;;;;;;14.03;3.20;;;;;;;;;;5035979;28;20959;-57
2021/11/21 13:25:50;;;;;;;7.50;2.92;;;;;;;;;;5036088;28;20503;-56
2021/11/21 13:28:39;;;;;;;10.10;2.83;;;;;;;;;;5036295;28;20277;-57
2021/11/21 13:31:08;;;;;;;8.43;3.60;;;;;;;;;;5035882;28;20313;-57
2021/11/21 13:33:37;;;;;;;8.13;3.47;;;;;;;;;;5035641;28;20301;-57
2021/11/21 13:36:09;;;;;;;11.25;3.20;;;;;;;;;;5035711;28;20228;-57
2021/11/21 13:38:41;;;;;;;6.72;3.13;;;;;;;;;;5035898;28;20266;-56
2021/11/21 13:41:08;;;;;;;11.60;3.63;;;;;;;;;;5035269;28;20221;-57
2021/11/21 13:43:37;;;;;;;10.82;3.30;;;;;;;;;;5035610;28;20749;-58
2021/11/21 13:46:05;;;;;;;6.88;2.70;;;;;;;;;;5035758;28;20281;-58
2021/11/21 13:48:33;;;;;;;8.63;3.97;;;;;;;;;;5035593;28;20298;-57
2021/11/21 13:51:02;;;;;;;9.27;2.70;;;;;;;;;;5034962;28;20321;-57
2021/11/21 13:53:41;;;;;;;6.55;3.05;;;;;;;;;;5035457;28;20225;-58
2021/11/21 13:56:11;;;;;;;10.00;3.97;;;;;;;;;;5035592;28;20273;-57
2021/11/21 13:58:39;;;;;;;7.05;3.38;;;;;;;;;;5035067;28;20683;-57
2021/11/21 14:01:10;;;;;;;7.68;2.80;;;;;;;;;;5035283;28;20305;-57
2021/11/21 14:03:39;;;;;;;7.03;2.90;;;;;;;;;;5034881;28;20531;-57
2021/11/21 14:06:07;;;;;;;10.87;3.00;;;;;;;;;;5035074;28;20206;-56
2021/11/21 14:08:41;;;;;;;8.93;2.97;;;;;;;;;;5035286;28;20559;-57
2021/11/21 14:11:09;;;;;;;6.15;2.78;;;;;;;;;;5035104;28;20480;-58
2021/11/21 14:13:41;;;;;;;9.63;3.10;;;;;;;;;;5035037;28;20217;-57
2021/11/21 14:16:09;;;;;;;6.57;2.47;;;;;;;;;;5034784;28;20211;-58
2021/11/21 14:18:37;;;;;;;7.57;2.40;;;;;;;;;;5034734;28;20639;-58
2021/11/21 14:21:06;;;;;;;6.25;2.15;;;;;;;;;;5034677;28;20310;-57
2021/11/21 14:23:33;;;;;;;9.27;2.70;;;;;;;;;;5034705;28;20673;-56
2021/11/21 14:26:03;;;;;;;13.00;3.13;;;;;;;;;;5034730;28;20293;-58
2021/11/21 14:28:31;;;;;;;12.85;2.53;;;;;;;;;;5034637;28;20700;-58
2021/11/21 14:31:00;;;;;;;10.10;2.58;;;;;;;;;;5034465;28;20258;-58
2021/11/21 14:33:29;;;;;;;8.90;2.95;;;;;;;;;;5034659;28;20207;-56
2021/11/21 14:35:57;;;;;;;9.95;3.42;;;;;;;;;;5034577;28;20290;-56